Portada
METAR-TAF:

METAR-TAF

Aeroports :

Aeroport d'Oslo-Gardermoen

Oslo, Noruega

latitud: 60-12N, longitud: 011-05E, altitud: 208 m

Observació

L'informe es va fer fa 34 minuts, a les 11:50 UTC
Vent 13 kt del Nord
Temperatura 0°C
Humitat 80%
Pressió 983 hPa
Visibilitat 10 km o més
Escasses núvols a una alçada de 1000 ft
Cel ennuvolat a una alçada de 6500 ft

METAR: ENGM 091150Z 01013KT 9999 FEW010 BKN065 M00/M03 Q0983 TEMPO 35015G25KT

Hora: 13:24 (12:24 UTC)

Pronòstic

Pronòstic vàlid del 09 a les 12 UTC al 10 a les 12 UTC
Vent 10 kt del Nord/Nord-Est
Visibilitat 10 km o més
Cel ennuvolat a una alçada de 4000 ft
Temporalment
l' 09 a les 12 UTC al 09 a les 15 UTC
Vent 15 kt del Nord amb ràfegues de 25 kt
Evolucionant progressivament
l' 10 a les 02 UTC al 10 a les 04 UTC
Vent 3 kt amb direcció variable

TAF: ENGM 0912/1012 02010KT 9999 BKN040 TEMPO 0912/0915 35015G25KT BECMG 1002/1004 VRB03KT

Observacions i pronòstics meteorològics de més de 4000 aeroports (METAR i TAF).

Les estacions disponibles són els punts grocs i vermells al mapa.

Posi el ratolí al punt desitjat per veure el nom de l'estació.

Feu clic per veure les observacions i els pronòstics meteorològics.

Per canviar el mapa: feu clic els botons verds amb una creu de color negre per apropar; al botó verd amb un guió per allunyar la imatge; o en les fletxes verdes per a mapes adjacents.


METAR-TAF: